sensor_id;sensor_type;location;lat;lon;timestamp;P1;durP1;ratioP1;P2;durP2;ratioP2
48526;SDS011;34317;51.660;5.824;2022-09-28T00:01:18;7.85;;;5.70;;
48526;SDS011;34317;51.660;5.824;2022-09-28T00:03:47;8.95;;;5.90;;
48526;SDS011;34317;51.660;5.824;2022-09-28T00:06:16;7.80;;;6.53;;
48526;SDS011;34317;51.660;5.824;2022-09-28T00:08:45;10.48;;;6.15;;
48526;SDS011;34317;51.660;5.824;2022-09-28T00:11:13;8.95;;;6.28;;
48526;SDS011;34317;51.660;5.824;2022-09-28T00:13:41;8.75;;;6.43;;
48526;SDS011;34317;51.660;5.824;2022-09-28T00:16:11;8.68;;;6.60;;
48526;SDS011;34317;51.660;5.824;2022-09-28T00:18:40;8.73;;;5.80;;
48526;SDS011;34317;51.660;5.824;2022-09-28T00:23:37;10.48;;;6.05;;
48526;SDS011;34317;51.660;5.824;2022-09-28T00:26:23;8.75;;;5.85;;
48526;SDS011;34317;51.660;5.824;2022-09-28T00:28:52;9.25;;;6.40;;
48526;SDS011;34317;51.660;5.824;2022-09-28T00:31:20;8.82;;;6.00;;
48526;SDS011;34317;51.660;5.824;2022-09-28T00:33:49;7.70;;;6.15;;
48526;SDS011;34317;51.660;5.824;2022-09-28T00:36:21;8.65;;;5.95;;
48526;SDS011;34317;51.660;5.824;2022-09-28T00:38:49;10.77;;;7.20;;
48526;SDS011;34317;51.660;5.824;2022-09-28T00:41:17;9.65;;;6.47;;
48526;SDS011;34317;51.660;5.824;2022-09-28T00:43:44;8.88;;;6.78;;
48526;SDS011;34317;51.660;5.824;2022-09-28T00:46:13;10.20;;;6.68;;
48526;SDS011;34317;51.660;5.824;2022-09-28T00:48:50;11.48;;;7.60;;
48526;SDS011;34317;51.660;5.824;2022-09-28T00:51:22;9.35;;;7.10;;
48526;SDS011;34317;51.660;5.824;2022-09-28T00:53:52;11.57;;;7.82;;
48526;SDS011;34317;51.660;5.824;2022-09-28T00:56:22;11.15;;;8.18;;
48526;SDS011;34317;51.660;5.824;2022-09-28T00:58:54;12.43;;;8.05;;
48526;SDS011;34317;51.660;5.824;2022-09-28T01:01:22;15.82;;;8.65;;
48526;SDS011;34317;51.660;5.824;2022-09-28T01:03:50;12.93;;;8.60;;
48526;SDS011;34317;51.660;5.824;2022-09-28T01:06:21;12.15;;;8.45;;
48526;SDS011;34317;51.660;5.824;2022-09-28T01:08:54;12.43;;;9.20;;
48526;SDS011;34317;51.660;5.824;2022-09-28T01:11:24;14.63;;;9.32;;
48526;SDS011;34317;51.660;5.824;2022-09-28T01:13:53;13.15;;;10.02;;
48526;SDS011;34317;51.660;5.824;2022-09-28T01:27:43;18.15;;;11.27;;
48526;SDS011;34317;51.660;5.824;2022-09-28T01:30:18;16.50;;;10.88;;
48526;SDS011;34317;51.660;5.824;2022-09-28T01:32:48;18.90;;;11.52;;
48526;SDS011;34317;51.660;5.824;2022-09-28T01:40:45;15.50;;;11.40;;
48526;SDS011;34317;51.660;5.824;2022-09-28T01:43:14;18.25;;;11.63;;
48526;SDS011;34317;51.660;5.824;2022-09-28T01:45:46;17.50;;;11.68;;
48526;SDS011;34317;51.660;5.824;2022-09-28T01:48:18;13.82;;;10.70;;
48526;SDS011;34317;51.660;5.824;2022-09-28T01:50:55;17.17;;;11.70;;
48526;SDS011;34317;51.660;5.824;2022-09-28T01:53:33;16.38;;;12.13;;
48526;SDS011;34317;51.660;5.824;2022-09-28T01:56:09;15.90;;;11.68;;
48526;SDS011;34317;51.660;5.824;2022-09-28T01:58:40;15.38;;;11.32;;
48526;SDS011;34317;51.660;5.824;2022-09-28T02:03:56;15.57;;;10.77;;
48526;SDS011;34317;51.660;5.824;2022-09-28T02:06:30;16.08;;;11.40;;
48526;SDS011;34317;51.660;5.824;2022-09-28T02:09:03;16.02;;;10.88;;
48526;SDS011;34317;51.660;5.824;2022-09-28T02:11:42;14.73;;;10.75;;
48526;SDS011;34317;51.660;5.824;2022-09-28T02:14:14;15.88;;;11.07;;
48526;SDS011;34317;51.660;5.824;2022-09-28T02:16:49;16.02;;;10.93;;
48526;SDS011;34317;51.660;5.824;2022-09-28T02:19:26;13.07;;;10.35;;
48526;SDS011;34317;51.660;5.824;2022-09-28T02:21:57;15.75;;;10.75;;
48526;SDS011;34317;51.660;5.824;2022-09-28T02:24:26;13.98;;;10.63;;
48526;SDS011;34317;51.660;5.824;2022-09-28T02:27:15;13.80;;;10.02;;
48526;SDS011;34317;51.660;5.824;2022-09-28T02:29:47;14.75;;;10.00;;
48526;SDS011;34317;51.660;5.824;2022-09-28T02:32:15;13.73;;;10.18;;
48526;SDS011;34317;51.660;5.824;2022-09-28T02:34:45;15.30;;;10.35;;
48526;SDS011;34317;51.660;5.824;2022-09-28T02:37:12;13.73;;;9.50;;
48526;SDS011;34317;51.660;5.824;2022-09-28T02:39:39;15.07;;;9.20;;
48526;SDS011;34317;51.660;5.824;2022-09-28T03:07:40;15.20;;;9.70;;
48526;SDS011;34317;51.660;5.824;2022-09-28T03:10:36;16.13;;;10.25;;
48526;SDS011;34317;51.660;5.824;2022-09-28T03:13:08;15.73;;;11.35;;
48526;SDS011;34317;51.660;5.824;2022-09-28T03:15:38;17.50;;;10.93;;
48526;SDS011;34317;51.660;5.824;2022-09-28T03:18:06;13.13;;;11.18;;
48526;SDS011;34317;51.660;5.824;2022-09-28T03:20:33;17.63;;;11.52;;
48526;SDS011;34317;51.660;5.824;2022-09-28T03:23:01;20.00;;;11.55;;
48526;SDS011;34317;51.660;5.824;2022-09-28T03:25:48;16.05;;;11.88;;
48526;SDS011;34317;51.660;5.824;2022-09-28T03:28:15;17.38;;;11.77;;
48526;SDS011;34317;51.660;5.824;2022-09-28T03:30:43;15.55;;;11.55;;
48526;SDS011;34317;51.660;5.824;2022-09-28T03:33:10;17.75;;;12.02;;
48526;SDS011;34317;51.660;5.824;2022-09-28T03:35:37;14.35;;;11.35;;
48526;SDS011;34317;51.660;5.824;2022-09-28T03:38:04;18.65;;;11.73;;
48526;SDS011;34317;51.660;5.824;2022-09-28T03:40:34;16.92;;;12.20;;
48526;SDS011;34317;51.660;5.824;2022-09-28T03:43:01;19.58;;;11.27;;
48526;SDS011;34317;51.660;5.824;2022-09-28T03:45:29;14.50;;;10.60;;
48526;SDS011;34317;51.660;5.824;2022-09-28T03:47:56;17.77;;;11.10;;
48526;SDS011;34317;51.660;5.824;2022-09-28T03:50:23;17.20;;;11.25;;
48526;SDS011;34317;51.660;5.824;2022-09-28T03:52:50;16.52;;;10.88;;
48526;SDS011;34317;51.660;5.824;2022-09-28T03:55:17;15.85;;;10.98;;
48526;SDS011;34317;51.660;5.824;2022-09-28T03:57:51;14.05;;;10.50;;
48526;SDS011;34317;51.660;5.824;2022-09-28T04:00:18;17.83;;;11.13;;
48526;SDS011;34317;51.660;5.824;2022-09-28T04:02:46;13.05;;;9.57;;
48526;SDS011;34317;51.660;5.824;2022-09-28T04:05:13;16.98;;;10.77;;
48526;SDS011;34317;51.660;5.824;2022-09-28T04:07:40;16.40;;;10.85;;
48526;SDS011;34317;51.660;5.824;2022-09-28T04:10:07;16.92;;;10.35;;
48526;SDS011;34317;51.660;5.824;2022-09-28T04:12:35;13.20;;;9.40;;
48526;SDS011;34317;51.660;5.824;2022-09-28T04:15:03;12.98;;;9.63;;
48526;SDS011;34317;51.660;5.824;2022-09-28T04:17:31;14.07;;;10.25;;
48526;SDS011;34317;51.660;5.824;2022-09-28T04:20:05;15.15;;;9.48;;
48526;SDS011;34317;51.660;5.824;2022-09-28T04:22:44;14.60;;;9.32;;
48526;SDS011;34317;51.660;5.824;2022-09-28T04:25:11;13.88;;;9.05;;
48526;SDS011;34317;51.660;5.824;2022-09-28T04:27:38;13.02;;;8.98;;
48526;SDS011;34317;51.660;5.824;2022-09-28T04:30:24;11.77;;;8.57;;
48526;SDS011;34317;51.660;5.824;2022-09-28T04:32:51;13.38;;;8.50;;
48526;SDS011;34317;51.660;5.824;2022-09-28T04:35:18;14.30;;;8.40;;
48526;SDS011;34317;51.660;5.824;2022-09-28T04:37:46;11.73;;;8.13;;
48526;SDS011;34317;51.660;5.824;2022-09-28T04:40:13;10.80;;;8.10;;
48526;SDS011;34317;51.660;5.824;2022-09-28T04:42:42;12.07;;;7.78;;
48526;SDS011;34317;51.660;5.824;2022-09-28T04:45:09;12.10;;;6.97;;
48526;SDS011;34317;51.660;5.824;2022-09-28T04:47:40;8.57;;;6.28;;
48526;SDS011;34317;51.660;5.824;2022-09-28T04:50:30;11.60;;;6.72;;
48526;SDS011;34317;51.660;5.824;2022-09-28T04:53:18;9.77;;;5.80;;
48526;SDS011;34317;51.660;5.824;2022-09-28T04:56:06;8.95;;;5.97;;
48526;SDS011;34317;51.660;5.824;2022-09-28T04:58:37;8.27;;;5.28;;
48526;SDS011;34317;51.660;5.824;2022-09-28T05:01:06;8.57;;;5.88;;
48526;SDS011;34317;51.660;5.824;2022-09-28T05:03:57;8.02;;;5.50;;
48526;SDS011;34317;51.660;5.824;2022-09-28T05:09:11;7.32;;;5.65;;
48526;SDS011;34317;51.660;5.824;2022-09-28T05:11:38;8.82;;;5.95;;
48526;SDS011;34317;51.660;5.824;2022-09-28T05:14:10;8.05;;;5.60;;
48526;SDS011;34317;51.660;5.824;2022-09-28T05:16:39;9.00;;;6.22;;
48526;SDS011;34317;51.660;5.824;2022-09-28T05:19:29;15.95;;;6.32;;
48526;SDS011;34317;51.660;5.824;2022-09-28T05:22:02;9.85;;;5.68;;
48526;SDS011;34317;51.660;5.824;2022-09-28T05:24:36;13.88;;;5.93;;
48526;SDS011;34317;51.660;5.824;2022-09-28T05:27:03;8.68;;;6.15;;
48526;SDS011;34317;51.660;5.824;2022-09-28T05:29:30;8.63;;;5.97;;
48526;SDS011;34317;51.660;5.824;2022-09-28T05:32:31;11.15;;;5.63;;
48526;SDS011;34317;51.660;5.824;2022-09-28T05:35:10;7.88;;;5.18;;
48526;SDS011;34317;51.660;5.824;2022-09-28T05:37:40;8.30;;;5.32;;
48526;SDS011;34317;51.660;5.824;2022-09-28T05:40:08;7.35;;;4.32;;
48526;SDS011;34317;51.660;5.824;2022-09-28T05:42:37;7.28;;;4.85;;
48526;SDS011;34317;51.660;5.824;2022-09-28T05:45:04;8.43;;;4.22;;
48526;SDS011;34317;51.660;5.824;2022-09-28T05:47:35;8.77;;;4.32;;
48526;SDS011;34317;51.660;5.824;2022-09-28T05:50:05;7.88;;;4.10;;
48526;SDS011;34317;51.660;5.824;2022-09-28T05:52:33;7.35;;;4.00;;
48526;SDS011;34317;51.660;5.824;2022-09-28T05:55:03;7.95;;;4.15;;
48526;SDS011;34317;51.660;5.824;2022-09-28T05:57:31;7.15;;;3.78;;
48526;SDS011;34317;51.660;5.824;2022-09-28T05:59:59;7.28;;;3.90;;
48526;SDS011;34317;51.660;5.824;2022-09-28T06:02:27;5.50;;;3.70;;
48526;SDS011;34317;51.660;5.824;2022-09-28T06:04:54;10.07;;;4.05;;
48526;SDS011;34317;51.660;5.824;2022-09-28T06:07:21;7.00;;;3.42;;
48526;SDS011;34317;51.660;5.824;2022-09-28T06:09:49;8.43;;;3.42;;
48526;SDS011;34317;51.660;5.824;2022-09-28T06:12:19;6.07;;;3.33;;
48526;SDS011;34317;51.660;5.824;2022-09-28T06:14:48;8.90;;;3.47;;
48526;SDS011;34317;51.660;5.824;2022-09-28T06:17:15;6.82;;;3.47;;
48526;SDS011;34317;51.660;5.824;2022-09-28T06:19:47;3.90;;;3.15;;
48526;SDS011;34317;51.660;5.824;2022-09-28T06:22:25;5.05;;;3.17;;
48526;SDS011;34317;51.660;5.824;2022-09-28T06:25:05;5.15;;;3.25;;
48526;SDS011;34317;51.660;5.824;2022-09-28T06:27:32;7.38;;;2.97;;
48526;SDS011;34317;51.660;5.824;2022-09-28T06:30:00;8.40;;;3.72;;
48526;SDS011;34317;51.660;5.824;2022-09-28T06:32:28;5.47;;;2.85;;
48526;SDS011;34317;51.660;5.824;2022-09-28T06:34:55;4.60;;;2.85;;
48526;SDS011;34317;51.660;5.824;2022-09-28T06:37:24;5.97;;;2.85;;
48526;SDS011;34317;51.660;5.824;2022-09-28T06:39:55;9.05;;;3.20;;
48526;SDS011;34317;51.660;5.824;2022-09-28T06:42:22;5.07;;;3.10;;
48526;SDS011;34317;51.660;5.824;2022-09-28T06:45:08;5.72;;;3.10;;
48526;SDS011;34317;51.660;5.824;2022-09-28T06:47:51;4.22;;;2.85;;
48526;SDS011;34317;51.660;5.824;2022-09-28T06:50:31;7.03;;;2.58;;
48526;SDS011;34317;51.660;5.824;2022-09-28T06:53:28;6.15;;;2.50;;
48526;SDS011;34317;51.660;5.824;2022-09-28T06:56:00;6.57;;;2.65;;
48526;SDS011;34317;51.660;5.824;2022-09-28T06:58:29;7.65;;;2.45;;
48526;SDS011;34317;51.660;5.824;2022-09-28T07:00:58;3.78;;;2.05;;
48526;SDS011;34317;51.660;5.824;2022-09-28T07:03:27;5.18;;;2.40;;
48526;SDS011;34317;51.660;5.824;2022-09-28T07:05:55;5.22;;;2.40;;
48526;SDS011;34317;51.660;5.824;2022-09-28T07:08:41;6.00;;;2.03;;
48526;SDS011;34317;51.660;5.824;2022-09-28T07:11:27;4.47;;;2.22;;
48526;SDS011;34317;51.660;5.824;2022-09-28T07:14:10;4.45;;;1.95;;
48526;SDS011;34317;51.660;5.824;2022-09-28T07:16:52;3.90;;;1.60;;
48526;SDS011;34317;51.660;5.824;2022-09-28T07:19:39;4.60;;;1.85;;
48526;SDS011;34317;51.660;5.824;2022-09-28T07:22:06;3.47;;;2.10;;
48526;SDS011;34317;51.660;5.824;2022-09-28T07:24:33;3.35;;;1.95;;
48526;SDS011;34317;51.660;5.824;2022-09-28T07:29:55;5.23;;;2.00;;
48526;SDS011;34317;51.660;5.824;2022-09-28T07:32:33;4.50;;;1.73;;
48526;SDS011;34317;51.660;5.824;2022-09-28T07:35:18;4.05;;;1.67;;
48526;SDS011;34317;51.660;5.824;2022-09-28T07:37:48;6.03;;;1.75;;
48526;SDS011;34317;51.660;5.824;2022-09-28T07:40:15;4.03;;;1.75;;
48526;SDS011;34317;51.660;5.824;2022-09-28T07:43:04;6.45;;;1.80;;
48526;SDS011;34317;51.660;5.824;2022-09-28T07:45:31;3.45;;;1.70;;
48526;SDS011;34317;51.660;5.824;2022-09-28T07:48:03;5.00;;;2.20;;
48526;SDS011;34317;51.660;5.824;2022-09-28T07:51:03;5.20;;;2.10;;
48526;SDS011;34317;51.660;5.824;2022-09-28T07:53:33;4.15;;;2.05;;
48526;SDS011;34317;51.660;5.824;2022-09-28T07:56:14;3.10;;;1.95;;
48526;SDS011;34317;51.660;5.824;2022-09-28T07:59:06;4.82;;;1.88;;
48526;SDS011;34317;51.660;5.824;2022-09-28T08:01:39;4.93;;;1.90;;
48526;SDS011;34317;51.660;5.824;2022-09-28T08:04:09;5.63;;;2.03;;
48526;SDS011;34317;51.660;5.824;2022-09-28T08:06:37;4.78;;;2.28;;
48526;SDS011;34317;51.660;5.824;2022-09-28T08:09:08;4.22;;;2.05;;
48526;SDS011;34317;51.660;5.824;2022-09-28T08:12:11;3.80;;;1.70;;
48526;SDS011;34317;51.660;5.824;2022-09-28T08:14:56;4.20;;;1.73;;
48526;SDS011;34317;51.660;5.824;2022-09-28T08:17:36;4.30;;;1.70;;
48526;SDS011;34317;51.660;5.824;2022-09-28T08:20:06;3.70;;;1.60;;
48526;SDS011;34317;51.660;5.824;2022-09-28T08:22:53;5.68;;;2.00;;
48526;SDS011;34317;51.660;5.824;2022-09-28T08:25:20;3.70;;;2.03;;
48526;SDS011;34317;51.660;5.824;2022-09-28T08:27:47;3.00;;;1.92;;
48526;SDS011;34317;51.660;5.824;2022-09-28T08:30:15;5.15;;;1.90;;
48526;SDS011;34317;51.660;5.824;2022-09-28T08:33:05;4.03;;;1.75;;
48526;SDS011;34317;51.660;5.824;2022-09-28T08:35:43;2.63;;;1.60;;
48526;SDS011;34317;51.660;5.824;2022-09-28T08:38:16;2.70;;;1.98;;
48526;SDS011;34317;51.660;5.824;2022-09-28T08:44:21;3.70;;;1.80;;
48526;SDS011;34317;51.660;5.824;2022-09-28T08:47:17;4.45;;;1.92;;
48526;SDS011;34317;51.660;5.824;2022-09-28T08:50:33;4.32;;;1.60;;
48526;SDS011;34317;51.660;5.824;2022-09-28T08:53:41;2.13;;;1.55;;
48526;SDS011;34317;51.660;5.824;2022-09-28T08:56:27;4.45;;;1.70;;
48526;SDS011;34317;51.660;5.824;2022-09-28T08:59:08;4.25;;;1.65;;
48526;SDS011;34317;51.660;5.824;2022-09-28T09:02:08;4.78;;;1.98;;
48526;SDS011;34317;51.660;5.824;2022-09-28T09:04:43;3.10;;;1.65;;
48526;SDS011;34317;51.660;5.824;2022-09-28T09:10:21;2.38;;;1.40;;
48526;SDS011;34317;51.660;5.824;2022-09-28T09:18:43;2.28;;;1.70;;
48526;SDS011;34317;51.660;5.824;2022-09-28T09:24:40;4.72;;;1.77;;
48526;SDS011;34317;51.660;5.824;2022-09-28T09:27:38;4.72;;;1.80;;
48526;SDS011;34317;51.660;5.824;2022-09-28T09:30:26;3.33;;;1.73;;
48526;SDS011;34317;51.660;5.824;2022-09-28T09:36:12;4.38;;;1.80;;
48526;SDS011;34317;51.660;5.824;2022-09-28T09:39:50;2.72;;;2.08;;
48526;SDS011;34317;51.660;5.824;2022-09-28T09:46:16;4.68;;;2.10;;
48526;SDS011;34317;51.660;5.824;2022-09-28T09:49:06;3.53;;;2.30;;
48526;SDS011;34317;51.660;5.824;2022-09-28T09:51:56;5.18;;;2.20;;
48526;SDS011;34317;51.660;5.824;2022-09-28T09:54:30;4.50;;;1.98;;
48526;SDS011;34317;51.660;5.824;2022-09-28T09:57:12;2.70;;;1.85;;
48526;SDS011;34317;51.660;5.824;2022-09-28T09:59:59;3.15;;;1.58;;
48526;SDS011;34317;51.660;5.824;2022-09-28T10:02:48;3.30;;;1.60;;
48526;SDS011;34317;51.660;5.824;2022-09-28T10:05:37;4.18;;;1.60;;
48526;SDS011;34317;51.660;5.824;2022-09-28T10:10:37;2.72;;;1.50;;
48526;SDS011;34317;51.660;5.824;2022-09-28T10:13:12;2.25;;;1.23;;
48526;SDS011;34317;51.660;5.824;2022-09-28T10:15:41;3.88;;;1.02;;
48526;SDS011;34317;51.660;5.824;2022-09-28T10:18:21;1.40;;;0.77;;
48526;SDS011;34317;51.660;5.824;2022-09-28T10:21:10;3.63;;;1.00;;
48526;SDS011;34317;51.660;5.824;2022-09-28T10:23:49;3.20;;;1.10;;
48526;SDS011;34317;51.660;5.824;2022-09-28T10:26:27;2.05;;;1.00;;
48526;SDS011;34317;51.660;5.824;2022-09-28T10:29:03;2.65;;;1.00;;
48526;SDS011;34317;51.660;5.824;2022-09-28T10:31:39;1.88;;;0.80;;
48526;SDS011;34317;51.660;5.824;2022-09-28T10:34:24;3.10;;;0.90;;
48526;SDS011;34317;51.660;5.824;2022-09-28T10:37:03;3.38;;;1.10;;
48526;SDS011;34317;51.660;5.824;2022-09-28T10:39:56;3.25;;;1.30;;
48526;SDS011;34317;51.660;5.824;2022-09-28T10:42:32;3.25;;;1.50;;
48526;SDS011;34317;51.660;5.824;2022-09-28T10:47:49;2.28;;;1.60;;
48526;SDS011;34317;51.660;5.824;2022-09-28T10:50:23;2.35;;;1.52;;
48526;SDS011;34317;51.660;5.824;2022-09-28T10:53:16;2.53;;;1.73;;
48526;SDS011;34317;51.660;5.824;2022-09-28T10:56:19;3.55;;;1.40;;
48526;SDS011;34317;51.660;5.824;2022-09-28T10:58:57;2.00;;;1.20;;
48526;SDS011;34317;51.660;5.824;2022-09-28T11:01:39;1.60;;;1.10;;
48526;SDS011;34317;51.660;5.824;2022-09-28T11:04:17;2.22;;;1.23;;
48526;SDS011;34317;51.660;5.824;2022-09-28T11:06:49;2.53;;;1.45;;
48526;SDS011;34317;51.660;5.824;2022-09-28T11:12:12;2.45;;;1.20;;
48526;SDS011;34317;51.660;5.824;2022-09-28T11:14:41;1.92;;;0.90;;
48526;SDS011;34317;51.660;5.824;2022-09-28T11:19:54;4.32;;;1.25;;
48526;SDS011;34317;51.660;5.824;2022-09-28T11:25:12;3.13;;;1.48;;
48526;SDS011;34317;51.660;5.824;2022-09-28T11:30:30;4.35;;;1.23;;
48526;SDS011;34317;51.660;5.824;2022-09-28T11:33:29;2.53;;;1.17;;
48526;SDS011;34317;51.660;5.824;2022-09-28T11:36:29;3.45;;;1.20;;
48526;SDS011;34317;51.660;5.824;2022-09-28T11:39:11;1.10;;;0.85;;
48526;SDS011;34317;51.660;5.824;2022-09-28T11:44:36;4.20;;;0.90;;
48526;SDS011;34317;51.660;5.824;2022-09-28T11:52:53;1.65;;;0.93;;
48526;SDS011;34317;51.660;5.824;2022-09-28T11:58:09;2.25;;;0.80;;
48526;SDS011;34317;51.660;5.824;2022-09-28T12:00:45;2.15;;;0.80;;
48526;SDS011;34317;51.660;5.824;2022-09-28T12:03:33;1.75;;;0.98;;
48526;SDS011;34317;51.660;5.824;2022-09-28T12:06:08;1.67;;;0.80;;
48526;SDS011;34317;51.660;5.824;2022-09-28T12:09:01;2.38;;;1.00;;
48526;SDS011;34317;51.660;5.824;2022-09-28T12:11:57;2.45;;;1.00;;
48526;SDS011;34317;51.660;5.824;2022-09-28T12:14:44;2.45;;;1.30;;
48526;SDS011;34317;51.660;5.824;2022-09-28T12:17:27;2.22;;;1.05;;
48526;SDS011;34317;51.660;5.824;2022-09-28T12:20:09;2.22;;;1.20;;
48526;SDS011;34317;51.660;5.824;2022-09-28T12:22:41;1.92;;;1.10;;
48526;SDS011;34317;51.660;5.824;2022-09-28T12:25:14;2.55;;;1.35;;
48526;SDS011;34317;51.660;5.824;2022-09-28T12:27:49;3.03;;;1.52;;
48526;SDS011;34317;51.660;5.824;2022-09-28T12:30:20;3.40;;;1.45;;
48526;SDS011;34317;51.660;5.824;2022-09-28T12:32:52;4.55;;;1.55;;
48526;SDS011;34317;51.660;5.824;2022-09-28T12:41:10;2.42;;;1.00;;
48526;SDS011;34317;51.660;5.824;2022-09-28T12:47:04;2.67;;;1.05;;
48526;SDS011;34317;51.660;5.824;2022-09-28T12:49:38;4.60;;;1.30;;
48526;SDS011;34317;51.660;5.824;2022-09-28T12:58:12;1.65;;;0.80;;
48526;SDS011;34317;51.660;5.824;2022-09-28T13:06:22;2.78;;;1.10;;
48526;SDS011;34317;51.660;5.824;2022-09-28T13:09:14;2.25;;;1.00;;
48526;SDS011;34317;51.660;5.824;2022-09-28T13:11:49;3.85;;;1.20;;
48526;SDS011;34317;51.660;5.824;2022-09-28T13:23:34;2.83;;;0.82;;
48526;SDS011;34317;51.660;5.824;2022-09-28T13:28:53;4.90;;;1.20;;
48526;SDS011;34317;51.660;5.824;2022-09-28T13:31:24;3.97;;;1.40;;
48526;SDS011;34317;51.660;5.824;2022-09-28T13:34:00;2.88;;;1.17;;
48526;SDS011;34317;51.660;5.824;2022-09-28T13:38:59;2.67;;;1.38;;
48526;SDS011;34317;51.660;5.824;2022-09-28T13:55:22;1.60;;;0.70;;
48526;SDS011;34317;51.660;5.824;2022-09-28T14:00:51;1.73;;;0.60;;
48526;SDS011;34317;51.660;5.824;2022-09-28T14:06:42;3.38;;;0.90;;
48526;SDS011;34317;51.660;5.824;2022-09-28T14:11:57;5.78;;;0.70;;
48526;SDS011;34317;51.660;5.824;2022-09-28T14:14:27;2.22;;;0.63;;
48526;SDS011;34317;51.660;5.824;2022-09-28T14:19:55;1.98;;;0.68;;
48526;SDS011;34317;51.660;5.824;2022-09-28T14:22:31;1.20;;;0.60;;
48526;SDS011;34317;51.660;5.824;2022-09-28T14:31:08;0.40;;;0.30;;
48526;SDS011;34317;51.660;5.824;2022-09-28T14:33:46;2.38;;;0.50;;
48526;SDS011;34317;51.660;5.824;2022-09-28T14:36:23;1.48;;;0.50;;
48526;SDS011;34317;51.660;5.824;2022-09-28T14:39:20;2.40;;;0.70;;
48526;SDS011;34317;51.660;5.824;2022-09-28T14:42:12;0.82;;;0.50;;
48526;SDS011;34317;51.660;5.824;2022-09-28T14:47:43;2.15;;;0.50;;
48526;SDS011;34317;51.660;5.824;2022-09-28T14:50:29;1.95;;;1.15;;
48526;SDS011;34317;51.660;5.824;2022-09-28T14:53:02;3.42;;;1.20;;
48526;SDS011;34317;51.660;5.824;2022-09-28T14:55:32;4.00;;;1.00;;
48526;SDS011;34317;51.660;5.824;2022-09-28T15:00:41;2.78;;;0.88;;
48526;SDS011;34317;51.660;5.824;2022-09-28T15:03:10;3.33;;;0.93;;
48526;SDS011;34317;51.660;5.824;2022-09-28T15:05:43;3.22;;;0.88;;
48526;SDS011;34317;51.660;5.824;2022-09-28T15:08:18;2.70;;;0.73;;
48526;SDS011;34317;51.660;5.824;2022-09-28T15:10:47;5.10;;;0.93;;
48526;SDS011;34317;51.660;5.824;2022-09-28T15:13:25;1.75;;;0.60;;
48526;SDS011;34317;51.660;5.824;2022-09-28T15:15:55;1.55;;;0.65;;
48526;SDS011;34317;51.660;5.824;2022-09-28T15:18:33;2.58;;;0.52;;
48526;SDS011;34317;51.660;5.824;2022-09-28T15:21:11;1.23;;;0.40;;
48526;SDS011;34317;51.660;5.824;2022-09-28T15:23:40;2.08;;;0.90;;
48526;SDS011;34317;51.660;5.824;2022-09-28T15:26:20;1.88;;;0.80;;
48526;SDS011;34317;51.660;5.824;2022-09-28T15:28:54;1.50;;;0.82;;
48526;SDS011;34317;51.660;5.824;2022-09-28T15:31:22;2.53;;;1.08;;
48526;SDS011;34317;51.660;5.824;2022-09-28T15:33:52;3.67;;;0.90;;
48526;SDS011;34317;51.660;5.824;2022-09-28T15:36:40;2.85;;;0.73;;
48526;SDS011;34317;51.660;5.824;2022-09-28T15:39:12;1.25;;;0.60;;
48526;SDS011;34317;51.660;5.824;2022-09-28T15:41:45;2.88;;;0.70;;
48526;SDS011;34317;51.660;5.824;2022-09-28T15:49:44;1.10;;;0.50;;
48526;SDS011;34317;51.660;5.824;2022-09-28T15:52:24;0.73;;;0.50;;
48526;SDS011;34317;51.660;5.824;2022-09-28T15:54:52;0.93;;;0.50;;
48526;SDS011;34317;51.660;5.824;2022-09-28T15:57:54;1.88;;;0.50;;
48526;SDS011;34317;51.660;5.824;2022-09-28T16:00:21;0.73;;;0.50;;
48526;SDS011;34317;51.660;5.824;2022-09-28T16:02:59;0.90;;;0.50;;
48526;SDS011;34317;51.660;5.824;2022-09-28T16:05:34;0.80;;;0.50;;
48526;SDS011;34317;51.660;5.824;2022-09-28T16:08:12;0.98;;;0.47;;
48526;SDS011;34317;51.660;5.824;2022-09-28T16:11:01;1.35;;;0.52;;
48526;SDS011;34317;51.660;5.824;2022-09-28T16:13:36;1.03;;;0.60;;
48526;SDS011;34317;51.660;5.824;2022-09-28T16:16:25;0.85;;;0.50;;
48526;SDS011;34317;51.660;5.824;2022-09-28T16:21:56;2.38;;;0.60;;
48526;SDS011;34317;51.660;5.824;2022-09-28T16:24:26;1.50;;;0.57;;
48526;SDS011;34317;51.660;5.824;2022-09-28T16:26:57;1.05;;;0.70;;
48526;SDS011;34317;51.660;5.824;2022-09-28T16:29:33;2.22;;;0.70;;
48526;SDS011;34317;51.660;5.824;2022-09-28T16:35:06;1.02;;;0.50;;
48526;SDS011;34317;51.660;5.824;2022-09-28T16:37:48;0.82;;;0.60;;
48526;SDS011;34317;51.660;5.824;2022-09-28T16:40:37;1.45;;;0.77;;
48526;SDS011;34317;51.660;5.824;2022-09-28T16:43:08;1.15;;;0.65;;
48526;SDS011;34317;51.660;5.824;2022-09-28T16:45:46;0.93;;;0.60;;
48526;SDS011;34317;51.660;5.824;2022-09-28T16:48:13;2.50;;;0.60;;
48526;SDS011;34317;51.660;5.824;2022-09-28T16:50:45;2.03;;;0.57;;
48526;SDS011;34317;51.660;5.824;2022-09-28T16:53:15;1.55;;;0.70;;
48526;SDS011;34317;51.660;5.824;2022-09-28T16:56:02;1.75;;;0.80;;
48526;SDS011;34317;51.660;5.824;2022-09-28T16:58:30;1.33;;;0.70;;
48526;SDS011;34317;51.660;5.824;2022-09-28T17:00:58;2.75;;;0.90;;
48526;SDS011;34317;51.660;5.824;2022-09-28T17:03:26;1.20;;;1.00;;
48526;SDS011;34317;51.660;5.824;2022-09-28T17:05:54;1.63;;;1.15;;
48526;SDS011;34317;51.660;5.824;2022-09-28T17:08:21;1.52;;;1.10;;
48526;SDS011;34317;51.660;5.824;2022-09-28T17:10:51;1.85;;;1.33;;
48526;SDS011;34317;51.660;5.824;2022-09-28T17:13:40;2.88;;;1.48;;
48526;SDS011;34317;51.660;5.824;2022-09-28T17:16:12;1.60;;;1.20;;
48526;SDS011;34317;51.660;5.824;2022-09-28T17:18:44;2.13;;;1.27;;
48526;SDS011;34317;51.660;5.824;2022-09-28T17:21:13;2.88;;;1.45;;
48526;SDS011;34317;51.660;5.824;2022-09-28T17:23:44;1.75;;;1.20;;
48526;SDS011;34317;51.660;5.824;2022-09-28T17:26:26;4.07;;;1.50;;
48526;SDS011;34317;51.660;5.824;2022-09-28T17:28:57;2.83;;;1.60;;
48526;SDS011;34317;51.660;5.824;2022-09-28T17:31:25;2.97;;;1.67;;
48526;SDS011;34317;51.660;5.824;2022-09-28T17:33:53;2.33;;;1.70;;
48526;SDS011;34317;51.660;5.824;2022-09-28T17:36:20;3.20;;;1.55;;
48526;SDS011;34317;51.660;5.824;2022-09-28T17:38:48;3.47;;;1.70;;
48526;SDS011;34317;51.660;5.824;2022-09-28T17:41:16;2.88;;;1.90;;
48526;SDS011;34317;51.660;5.824;2022-09-28T17:43:47;2.28;;;1.50;;
48526;SDS011;34317;51.660;5.824;2022-09-28T17:46:28;3.03;;;1.85;;
48526;SDS011;34317;51.660;5.824;2022-09-28T17:48:58;2.72;;;1.67;;
48526;SDS011;34317;51.660;5.824;2022-09-28T17:51:27;2.00;;;1.75;;
48526;SDS011;34317;51.660;5.824;2022-09-28T17:53:56;2.33;;;1.67;;
48526;SDS011;34317;51.660;5.824;2022-09-28T17:56:24;2.45;;;1.60;;
48526;SDS011;34317;51.660;5.824;2022-09-28T17:59:04;2.38;;;1.65;;
48526;SDS011;34317;51.660;5.824;2022-09-28T18:01:36;2.85;;;1.80;;
48526;SDS011;34317;51.660;5.824;2022-09-28T18:04:06;3.25;;;2.13;;
48526;SDS011;34317;51.660;5.824;2022-09-28T18:06:34;3.90;;;3.03;;
48526;SDS011;34317;51.660;5.824;2022-09-28T18:09:03;4.07;;;2.55;;
48526;SDS011;34317;51.660;5.824;2022-09-28T18:11:31;3.55;;;2.85;;
48526;SDS011;34317;51.660;5.824;2022-09-28T18:13:59;4.35;;;3.10;;
48526;SDS011;34317;51.660;5.824;2022-09-28T18:16:27;5.13;;;3.00;;
48526;SDS011;34317;51.660;5.824;2022-09-28T18:18:55;4.53;;;3.35;;
48526;SDS011;34317;51.660;5.824;2022-09-28T18:21:23;3.80;;;3.15;;
48526;SDS011;34317;51.660;5.824;2022-09-28T18:23:50;5.43;;;3.13;;
48526;SDS011;34317;51.660;5.824;2022-09-28T18:26:17;4.03;;;2.90;;
48526;SDS011;34317;51.660;5.824;2022-09-28T18:28:45;3.85;;;3.05;;
48526;SDS011;34317;51.660;5.824;2022-09-28T18:31:13;3.88;;;2.67;;
48526;SDS011;34317;51.660;5.824;2022-09-28T18:33:41;3.03;;;2.65;;
48526;SDS011;34317;51.660;5.824;2022-09-28T18:36:09;3.60;;;2.80;;